Time;durP1;ratioP1;P1;durP2;ratioP2;P2;SDS_P1;SDS_P2;PMS_P1;PMS_P2;Temp;Humidity;BMP_temperature;BMP_pressure;BME280_temperature;BME280_humidity;BME280_pressure;Samples;Min_cycle;Max_cycle;Signal;HPM_P1;HPM_P2
2023/03/23 00:02:27;;;;;;;2.47;1.70;;;15.70;99.90;;;;;;5095755;28;20469;-45
2023/03/23 00:04:53;;;;;;;2.30;1.70;;;15.70;99.90;;;;;;5096187;28;20422;-43
2023/03/23 00:07:27;;;;;;;3.50;2.20;;;15.70;99.90;;;;;;5095161;28;20649;-44
2023/03/23 00:09:54;;;;;;;2.93;2.17;;;15.70;99.90;;;;;;5095871;28;20488;-44
2023/03/23 00:12:33;;;;;;;7.43;2.70;;;15.70;99.90;;;;;;5096304;28;20406;-43
2023/03/23 00:15:07;;;;;;;2.63;1.90;;;15.70;99.90;;;;;;5084087;28;20441;-43
2023/03/23 00:17:34;;;;;;;2.67;2.00;;;15.70;99.90;;;;;;5078487;28;20415;-45
2023/03/23 00:20:00;;;;;;;2.33;1.83;;;15.60;99.90;;;;;;5076600;28;20894;-44
2023/03/23 00:22:27;;;;;;;1.70;1.60;;;15.60;99.90;;;;;;5078829;28;20443;-44
2023/03/23 00:24:54;;;;;;;3.00;1.77;;;15.60;99.90;;;;;;5078023;28;20423;-45
2023/03/23 00:27:24;;;;;;;1.90;1.70;;;15.60;99.90;;;;;;5078262;28;20471;-43
2023/03/23 00:29:53;;;;;;;2.73;1.77;;;15.60;99.90;;;;;;5076508;28;20507;-44
2023/03/23 00:32:26;;;;;;;1.90;1.70;;;15.60;99.90;;;;;;5077839;28;20423;-45
2023/03/23 00:34:56;;;;;;;2.87;2.00;;;15.60;99.90;;;;;;5078189;28;20423;-43
2023/03/23 00:37:22;;;;;;;3.50;1.90;;;15.60;99.90;;;;;;5077822;28;20747;-43
2023/03/23 00:39:48;;;;;;;3.20;1.90;;;15.50;99.90;;;;;;5077083;28;20485;-43
2023/03/23 00:42:15;;;;;;;1.77;1.50;;;15.50;99.90;;;;;;5077402;28;20470;-43
2023/03/23 00:44:41;;;;;;;4.17;2.47;;;15.50;99.90;;;;;;5078744;28;20459;-46
2023/03/23 00:47:08;;;;;;;1.87;1.67;;;15.50;99.90;;;;;;5078058;28;20817;-44
2023/03/23 00:49:36;;;;;;;2.30;2.00;;;15.50;99.90;;;;;;5078638;28;20779;-44
2023/03/23 00:52:03;;;;;;;2.97;2.10;;;15.40;99.90;;;;;;5078306;28;20415;-47
2023/03/23 00:54:29;;;;;;;2.50;2.10;;;15.40;99.90;;;;;;5078244;28;20428;-45
2023/03/23 00:56:55;;;;;;;3.17;2.10;;;15.40;99.90;;;;;;5077695;28;20473;-44
2023/03/23 00:59:21;;;;;;;2.30;2.00;;;15.40;99.90;;;;;;5078202;28;20439;-45
2023/03/23 01:01:48;;;;;;;2.30;1.77;;;15.40;99.90;;;;;;5077143;28;20554;-43
2023/03/23 01:04:14;;;;;;;2.90;2.10;;;15.30;99.90;;;;;;5076896;28;20712;-46
2023/03/23 01:06:43;;;;;;;2.60;2.27;;;15.30;99.90;;;;;;5073775;28;20694;-44
2023/03/23 01:09:14;;;;;;;2.33;2.13;;;15.30;99.90;;;;;;5074816;28;20495;-43
2023/03/23 01:11:41;;;;;;;2.77;2.23;;;15.30;99.90;;;;;;5077535;28;20490;-47
2023/03/23 01:14:06;;;;;;;2.33;2.03;;;15.30;99.90;;;;;;5077307;28;20446;-44
2023/03/23 01:16:32;;;;;;;12.43;2.57;;;15.30;99.90;;;;;;5076117;28;20639;-45
2023/03/23 01:18:57;;;;;;;3.90;2.43;;;15.30;99.90;;;;;;5075764;28;20233;-45
2023/03/23 01:21:24;;;;;;;2.80;2.10;;;15.30;99.90;;;;;;5076121;28;20498;-45
2023/03/23 01:23:50;;;;;;;2.83;2.10;;;15.30;99.90;;;;;;5073776;28;20294;-45
2023/03/23 01:26:19;;;;;;;3.67;2.40;;;15.20;99.90;;;;;;5074630;28;20846;-44
2023/03/23 01:28:45;;;;;;;3.33;2.30;;;15.20;99.90;;;;;;5075474;28;20487;-47
2023/03/23 01:31:14;;;;;;;2.50;2.13;;;15.10;99.90;;;;;;5076948;28;20416;-48
2023/03/23 01:33:41;;;;;;;2.60;2.20;;;15.10;99.90;;;;;;5077598;28;20491;-44
2023/03/23 01:36:10;;;;;;;3.20;2.27;;;15.10;99.90;;;;;;5077400;28;20412;-44
2023/03/23 01:38:36;;;;;;;2.90;2.00;;;15.00;99.90;;;;;;5076445;28;20595;-44
2023/03/23 01:41:02;;;;;;;2.70;2.30;;;15.00;99.90;;;;;;5075505;28;20592;-45
2023/03/23 01:43:28;;;;;;;3.70;2.20;;;15.00;99.90;;;;;;5074865;28;20570;-45
2023/03/23 01:45:54;;;;;;;2.30;2.03;;;14.90;99.90;;;;;;5074425;28;20411;-43
2023/03/23 01:48:37;;;;;;;2.60;2.10;;;14.90;99.90;;;;;;5073047;28;20188;-46
2023/03/23 01:51:06;;;;;;;2.50;2.30;;;14.90;99.90;;;;;;5073580;28;20778;-45
2023/03/23 01:53:40;;;;;;;3.03;2.13;;;14.80;99.90;;;;;;5093665;28;20445;-45
2023/03/23 01:56:07;;;;;;;3.57;2.13;;;14.80;99.90;;;;;;5094627;28;20613;-45
2023/03/23 01:58:34;;;;;;;2.43;2.00;;;14.80;99.90;;;;;;5095624;28;20804;-44
2023/03/23 02:01:04;;;;;;;1.80;1.67;;;14.80;99.90;;;;;;5095900;28;20461;-44
2023/03/23 02:03:31;;;;;;;2.23;2.03;;;14.80;99.90;;;;;;5096516;28;20437;-47
2023/03/23 02:06:00;;;;;;;2.70;2.40;;;14.80;99.90;;;;;;5094692;28;20413;-44
2023/03/23 02:08:29;;;;;;;3.20;2.80;;;14.80;99.90;;;;;;5097411;28;20680;-45
2023/03/23 02:10:55;;;;;;;4.20;2.20;;;14.80;99.90;;;;;;5095265;28;20411;-43
2023/03/23 02:13:21;;;;;;;2.83;2.13;;;14.80;99.90;;;;;;5095584;28;20881;-47
2023/03/23 02:16:02;;;;;;;3.10;2.00;;;14.80;99.90;;;;;;5095526;28;20279;-43
2023/03/23 02:18:39;;;;;;;2.23;1.90;;;14.70;99.90;;;;;;5094543;28;20438;-44
2023/03/23 02:21:26;;;;;;;3.73;2.47;;;14.70;99.90;;;;;;5094623;28;20980;-45
2023/03/23 02:23:57;;;;;;;2.43;2.23;;;14.70;99.90;;;;;;5093391;28;20641;-46
2023/03/23 02:26:47;;;;;;;3.00;2.53;;;14.70;99.90;;;;;;5095691;28;20549;-44
2023/03/23 02:29:43;;;;;;;2.33;2.07;;;14.70;99.90;;;;;;5078443;28;20490;-43
2023/03/23 02:35:44;;;;;;;2.70;1.90;;;14.70;99.90;;;;;;5096168;28;20739;-43
2023/03/23 02:38:22;;;;;;;4.93;2.47;;;14.70;99.90;;;;;;5095266;28;20418;-44
2023/03/23 02:40:49;;;;;;;2.30;2.03;;;14.60;99.90;;;;;;5095088;28;20530;-43
2023/03/23 02:43:20;;;;;;;5.20;2.00;;;14.60;99.90;;;;;;5095284;28;20470;-45
2023/03/23 02:45:46;;;;;;;2.40;2.00;;;14.60;99.90;;;;;;5095201;28;20437;-45
2023/03/23 02:48:15;;;;;;;2.53;1.90;;;14.60;99.90;;;;;;5096392;28;20486;-44
2023/03/23 02:50:43;;;;;;;2.10;1.70;;;14.60;99.90;;;;;;5095061;28;20836;-43
2023/03/23 02:53:10;;;;;;;2.20;2.00;;;14.60;99.90;;;;;;5096457;28;20446;-45
2023/03/23 02:55:41;;;;;;;2.73;2.13;;;14.50;99.90;;;;;;5094136;28;20441;-44
2023/03/23 02:58:08;;;;;;;2.90;2.30;;;14.50;99.90;;;;;;5094416;28;20720;-49
2023/03/23 03:00:34;;;;;;;2.80;2.10;;;14.50;99.90;;;;;;5096330;28;20895;-44
2023/03/23 03:02:59;;;;;;;2.20;2.00;;;14.50;99.90;;;;;;5095293;28;20498;-46
2023/03/23 03:05:45;;;;;;;2.33;2.00;;;14.50;99.90;;;;;;5095017;28;20509;-45
2023/03/23 03:08:24;;;;;;;3.10;2.03;;;14.50;99.90;;;;;;5095025;28;20181;-44
2023/03/23 03:10:57;;;;;;;2.30;2.10;;;14.50;99.90;;;;;;5095090;28;20432;-45
2023/03/23 03:13:48;;;;;;;2.03;1.70;;;14.50;99.90;;;;;;5094710;28;20438;-47
2023/03/23 03:16:35;;;;;;;2.23;1.63;;;14.50;99.90;;;;;;5095058;28;20426;-44
2023/03/23 03:19:07;;;;;;;1.67;1.57;;;14.50;99.90;;;;;;5095524;28;20422;-46
2023/03/23 03:21:36;;;;;;;2.80;2.17;;;14.50;99.90;;;;;;5095723;28;20476;-44
2023/03/23 03:24:03;;;;;;;2.13;1.73;;;14.50;99.90;;;;;;5094433;28;20411;-43
2023/03/23 03:26:30;;;;;;;2.70;2.07;;;14.50;99.90;;;;;;5094412;28;20504;-44
2023/03/23 03:28:56;;;;;;;3.03;2.73;;;14.50;99.90;;;;;;5093128;28;20416;-45
2023/03/23 03:31:26;;;;;;;2.37;2.00;;;14.50;99.90;;;;;;5094347;28;20521;-44
2023/03/23 03:33:52;;;;;;;2.73;2.17;;;14.50;99.90;;;;;;5093279;28;20627;-47
2023/03/23 03:36:25;;;;;;;2.47;2.17;;;14.50;99.90;;;;;;5092551;28;20429;-44
2023/03/23 03:38:51;;;;;;;2.73;1.77;;;14.50;99.90;;;;;;5093733;28;20245;-43
2023/03/23 03:41:18;;;;;;;3.00;1.77;;;14.50;99.90;;;;;;5093124;28;20840;-43
2023/03/23 03:43:43;;;;;;;2.63;1.83;;;14.50;99.90;;;;;;5095083;28;20413;-43
2023/03/23 03:46:10;;;;;;;1.87;1.60;;;14.50;99.90;;;;;;5094900;28;20423;-45
2023/03/23 03:48:35;;;;;;;2.27;2.07;;;14.50;99.90;;;;;;5096951;28;20210;-44
2023/03/23 03:51:02;;;;;;;1.90;1.60;;;14.50;99.90;;;;;;5099466;28;20503;-44
2023/03/23 03:53:30;;;;;;;2.10;1.90;;;14.50;99.90;;;;;;5098340;28;20213;-44
2023/03/23 03:55:56;;;;;;;1.70;1.60;;;14.50;99.90;;;;;;5098660;28;20446;-45
2023/03/23 03:58:22;;;;;;;2.40;2.20;;;14.50;99.90;;;;;;5098794;28;20513;-45
2023/03/23 04:00:49;;;;;;;2.30;2.10;;;14.50;99.90;;;;;;5098337;28;20744;-45
2023/03/23 04:03:16;;;;;;;3.33;2.23;;;14.50;99.90;;;;;;5098863;28;20414;-44
2023/03/23 04:05:44;;;;;;;2.97;2.10;;;14.50;99.90;;;;;;5099270;28;20461;-44
2023/03/23 04:08:11;;;;;;;2.80;1.73;;;14.40;99.90;;;;;;5099220;28;20446;-46
2023/03/23 04:10:37;;;;;;;2.67;2.03;;;14.50;99.90;;;;;;5099126;28;20452;-44
2023/03/23 04:13:04;;;;;;;3.77;2.13;;;14.50;99.90;;;;;;5099536;28;20407;-45
2023/03/23 04:15:30;;;;;;;1.73;1.63;;;14.50;99.90;;;;;;5098895;28;20442;-46
2023/03/23 04:17:56;;;;;;;2.37;2.07;;;14.40;99.90;;;;;;5099529;28;20525;-44
2023/03/23 04:20:23;;;;;;;1.90;1.60;;;14.40;99.90;;;;;;5099566;28;20453;-47
2023/03/23 04:22:49;;;;;;;2.13;1.73;;;14.40;99.90;;;;;;5098017;28;20854;-47
2023/03/23 04:25:17;;;;;;;3.00;1.90;;;14.40;99.90;;;;;;5097929;28;20517;-44
2023/03/23 04:27:45;;;;;;;2.37;1.80;;;14.40;99.90;;;;;;5098909;28;20248;-45
2023/03/23 04:30:12;;;;;;;3.13;2.00;;;14.40;99.90;;;;;;5098450;28;20422;-43
2023/03/23 04:32:41;;;;;;;2.20;1.73;;;14.40;99.90;;;;;;5099108;28;20407;-44
2023/03/23 04:35:11;;;;;;;3.67;1.90;;;14.40;99.90;;;;;;5099203;28;20441;-46
2023/03/23 04:37:37;;;;;;;1.97;1.80;;;14.40;99.90;;;;;;5099086;28;20407;-44
2023/03/23 04:40:07;;;;;;;3.80;2.17;;;14.40;99.90;;;;;;5098554;28;20430;-43
2023/03/23 04:42:33;;;;;;;3.00;1.73;;;14.40;99.90;;;;;;5097691;28;20425;-44
2023/03/23 04:44:59;;;;;;;2.03;1.70;;;14.40;99.90;;;;;;5098656;28;20419;-45
2023/03/23 04:47:29;;;;;;;1.70;1.60;;;14.40;99.90;;;;;;5098865;28;20181;-44
2023/03/23 04:49:57;;;;;;;3.20;1.90;;;14.40;99.90;;;;;;5097656;28;20634;-45
2023/03/23 04:52:24;;;;;;;2.53;1.80;;;14.40;99.90;;;;;;5096249;28;20469;-45
2023/03/23 04:54:50;;;;;;;1.80;1.50;;;14.40;99.90;;;;;;5095472;28;20475;-43
2023/03/23 04:57:16;;;;;;;2.03;1.80;;;14.40;99.90;;;;;;5097164;28;20548;-45
2023/03/23 04:59:43;;;;;;;2.30;1.90;;;14.40;99.90;;;;;;5095062;28;20549;-44
2023/03/23 05:02:09;;;;;;;2.63;2.07;;;14.40;99.90;;;;;;5095857;28;20215;-44
2023/03/23 05:04:37;;;;;;;2.40;2.03;;;14.40;99.90;;;;;;5095556;28;20415;-45
2023/03/23 05:07:03;;;;;;;2.20;1.80;;;14.40;99.90;;;;;;5094730;28;20411;-44
2023/03/23 05:09:29;;;;;;;2.20;1.80;;;14.40;99.90;;;;;;5094944;28;20897;-45
2023/03/23 05:11:54;;;;;;;2.43;1.90;;;14.40;99.90;;;;;;5095222;28;20555;-44
2023/03/23 05:14:21;;;;;;;2.47;1.83;;;14.40;99.90;;;;;;5091698;28;20414;-45
2023/03/23 05:16:48;;;;;;;2.30;2.10;;;14.40;99.90;;;;;;5090925;28;20180;-43
2023/03/23 05:19:14;;;;;;;2.60;1.80;;;14.40;99.90;;;;;;5091283;28;20422;-44
2023/03/23 05:21:40;;;;;;;3.60;2.07;;;14.40;99.90;;;;;;5092619;28;20474;-44
2023/03/23 05:24:06;;;;;;;2.73;1.77;;;14.40;99.90;;;;;;5093348;28;20426;-44
2023/03/23 05:26:32;;;;;;;2.50;2.13;;;14.40;99.90;;;;;;5091851;28;20553;-43
2023/03/23 05:28:58;;;;;;;2.57;1.90;;;14.40;99.90;;;;;;5094723;28;20716;-43
2023/03/23 05:31:24;;;;;;;2.80;1.93;;;14.40;99.90;;;;;;5092617;28;20454;-45
2023/03/23 05:33:51;;;;;;;3.27;2.00;;;14.40;99.90;;;;;;5091882;28;20863;-43
2023/03/23 05:36:16;;;;;;;2.93;2.07;;;14.40;99.90;;;;;;5092258;28;20728;-46
2023/03/23 05:38:45;;;;;;;5.17;1.90;;;14.40;99.90;;;;;;5093137;28;20415;-43
2023/03/23 05:41:11;;;;;;;2.60;1.90;;;14.40;99.90;;;;;;5096029;28;20300;-42
2023/03/23 05:43:37;;;;;;;2.80;2.20;;;14.40;99.90;;;;;;5093794;28;20820;-47
2023/03/23 05:46:03;;;;;;;3.27;2.10;;;14.40;99.90;;;;;;5093491;28;20689;-44
2023/03/23 05:48:29;;;;;;;2.00;1.80;;;14.40;99.90;;;;;;5093791;28;20202;-44
2023/03/23 05:50:54;;;;;;;2.70;1.53;;;14.40;99.90;;;;;;5092447;28;20502;-46
2023/03/23 05:53:20;;;;;;;3.07;2.20;;;14.50;99.90;;;;;;5091946;28;20176;-45
2023/03/23 05:55:46;;;;;;;2.50;1.90;;;14.40;99.90;;;;;;5088885;28;20590;-46
2023/03/23 05:58:12;;;;;;;2.57;2.00;;;14.50;99.90;;;;;;5091459;28;20305;-48
2023/03/23 06:00:39;;;;;;;2.77;1.70;;;14.50;99.90;;;;;;5092323;28;20474;-45
2023/03/23 06:03:04;;;;;;;2.20;2.00;;;14.50;99.90;;;;;;5092481;28;20183;-45
2023/03/23 06:05:32;;;;;;;2.87;2.20;;;14.60;99.90;;;;;;5092666;28;20696;-45
2023/03/23 06:07:59;;;;;;;3.57;2.10;;;14.60;99.90;;;;;;5092416;28;20607;-44
2023/03/23 06:10:26;;;;;;;2.57;1.80;;;14.60;99.90;;;;;;5090174;28;20651;-45
2023/03/23 06:12:52;;;;;;;2.30;2.00;;;14.70;99.90;;;;;;5091546;28;20913;-46
2023/03/23 06:15:18;;;;;;;3.80;2.17;;;14.70;99.90;;;;;;5092724;28;20545;-46
2023/03/23 06:17:44;;;;;;;2.40;2.07;;;14.80;99.90;;;;;;5092338;28;20725;-46
2023/03/23 06:20:11;;;;;;;3.50;2.10;;;14.80;99.90;;;;;;5089992;28;20426;-44
2023/03/23 06:22:37;;;;;;;3.10;2.70;;;14.80;99.90;;;;;;5091908;28;20184;-45
2023/03/23 06:25:05;;;;;;;3.10;2.40;;;14.80;99.90;;;;;;5090567;28;20426;-45
2023/03/23 06:27:30;;;;;;;3.00;1.93;;;14.80;99.90;;;;;;5093124;28;20545;-47
2023/03/23 06:29:56;;;;;;;2.13;1.87;;;14.80;99.90;;;;;;5092409;28;20521;-45
2023/03/23 06:32:22;;;;;;;2.43;1.80;;;14.80;99.90;;;;;;5088413;28;20593;-44
2023/03/23 06:34:48;;;;;;;3.67;2.30;;;14.80;99.90;;;;;;5089832;28;20185;-43
2023/03/23 06:37:15;;;;;;;3.30;2.43;;;14.90;99.90;;;;;;5091244;28;20878;-45
2023/03/23 06:39:41;;;;;;;2.90;2.00;;;14.90;99.90;;;;;;5091938;28;20165;-45
2023/03/23 06:42:11;;;;;;;2.57;2.13;;;14.90;99.90;;;;;;5090100;28;20469;-43
2023/03/23 06:44:37;;;;;;;2.20;1.90;;;14.90;99.90;;;;;;5091018;28;20553;-46
2023/03/23 06:47:03;;;;;;;4.43;2.00;;;14.90;99.90;;;;;;5088150;28;20432;-44
2023/03/23 06:49:29;;;;;;;2.47;2.17;;;15.00;99.90;;;;;;5089681;28;20461;-45
2023/03/23 06:51:56;;;;;;;3.33;2.10;;;15.10;99.90;;;;;;5086395;28;20399;-44
2023/03/23 06:54:21;;;;;;;1.60;1.50;;;15.20;99.90;;;;;;5091244;28;20198;-44
2023/03/23 06:56:47;;;;;;;2.80;1.77;;;15.20;99.90;;;;;;5090500;28;20488;-44
2023/03/23 06:59:13;;;;;;;3.13;2.37;;;15.30;99.90;;;;;;5090749;28;20406;-44
2023/03/23 07:01:39;;;;;;;3.63;2.43;;;15.40;99.90;;;;;;5092591;28;20212;-44
2023/03/23 07:04:05;;;;;;;5.07;2.03;;;15.50;99.90;;;;;;5092270;28;20474;-44
2023/03/23 07:06:31;;;;;;;2.10;1.90;;;15.60;99.90;;;;;;5090810;28;20422;-43
2023/03/23 07:08:57;;;;;;;2.57;2.13;;;15.60;99.90;;;;;;5089829;28;20463;-47
2023/03/23 07:11:23;;;;;;;2.50;1.77;;;15.60;99.90;;;;;;5090496;28;20426;-45
2023/03/23 07:13:49;;;;;;;3.57;2.20;;;15.60;99.90;;;;;;5089767;28;20402;-46
2023/03/23 07:16:16;;;;;;;2.90;2.23;;;15.60;99.90;;;;;;5090823;28;20184;-45
2023/03/23 07:18:42;;;;;;;2.63;2.37;;;15.70;99.90;;;;;;5087200;28;20434;-46
2023/03/23 07:21:07;;;;;;;3.73;2.73;;;15.70;99.90;;;;;;5090300;28;20480;-44
2023/03/23 07:23:33;;;;;;;2.73;2.43;;;15.60;99.90;;;;;;5095483;28;20197;-45
2023/03/23 07:25:59;;;;;;;3.50;1.93;;;15.60;99.90;;;;;;5097358;28;20235;-45
2023/03/23 07:28:25;;;;;;;2.83;2.10;;;15.60;99.90;;;;;;5095464;28;20554;-44
2023/03/23 07:30:51;;;;;;;3.30;2.20;;;15.50;99.90;;;;;;5093232;28;20425;-44
2023/03/23 07:33:17;;;;;;;2.37;1.93;;;15.50;99.90;;;;;;5096575;28;20251;-44
2023/03/23 07:35:43;;;;;;;2.67;2.40;;;15.50;99.90;;;;;;5095360;28;20804;-46
2023/03/23 07:38:09;;;;;;;4.60;2.40;;;15.50;99.90;;;;;;5095766;28;20788;-45
2023/03/23 07:40:35;;;;;;;3.00;2.43;;;15.50;99.90;;;;;;5096291;28;20747;-45
2023/03/23 07:43:03;;;;;;;2.57;2.33;;;15.50;99.90;;;;;;5094612;28;20415;-44
2023/03/23 07:45:28;;;;;;;3.47;2.40;;;15.60;99.90;;;;;;5096047;28;20437;-45
2023/03/23 07:47:54;;;;;;;2.83;2.53;;;15.60;99.90;;;;;;5094916;28;20725;-44
2023/03/23 07:50:24;;;;;;;2.70;2.10;;;15.70;99.90;;;;;;5094815;28;20168;-45
2023/03/23 07:52:50;;;;;;;2.47;2.27;;;15.80;99.90;;;;;;5093366;28;20839;-44
2023/03/23 07:55:19;;;;;;;2.93;2.20;;;16.00;99.90;;;;;;5093734;28;20751;-46
2023/03/23 07:57:48;;;;;;;2.80;2.40;;;16.10;99.90;;;;;;5093702;28;20430;-43
2023/03/23 08:00:19;;;;;;;3.07;2.17;;;16.30;99.90;;;;;;5093721;28;20422;-44
2023/03/23 08:02:50;;;;;;;2.60;2.27;;;16.40;99.90;;;;;;5092890;28;20412;-44
2023/03/23 08:05:16;;;;;;;2.50;2.30;;;16.50;99.90;;;;;;5096344;28;20604;-43
2023/03/23 08:07:42;;;;;;;2.47;2.27;;;16.60;99.90;;;;;;5095047;28;20876;-47
2023/03/23 08:10:12;;;;;;;2.93;2.13;;;16.70;99.90;;;;;;5093193;28;20418;-45
2023/03/23 08:12:39;;;;;;;2.53;2.10;;;16.80;99.90;;;;;;5094311;28;20402;-45
2023/03/23 08:15:06;;;;;;;3.30;2.20;;;16.80;99.90;;;;;;5093569;28;20477;-44
2023/03/23 08:17:32;;;;;;;4.00;2.13;;;16.90;99.90;;;;;;5091300;28;20776;-44
2023/03/23 08:19:58;;;;;;;3.80;2.77;;;17.00;99.90;;;;;;5090872;28;20422;-43
2023/03/23 08:22:24;;;;;;;2.57;2.27;;;17.10;99.90;;;;;;5092451;28;20465;-44
2023/03/23 08:24:50;;;;;;;3.80;2.30;;;17.30;99.90;;;;;;5093201;28;20181;-46
2023/03/23 08:27:16;;;;;;;3.20;2.83;;;17.50;99.90;;;;;;5093384;28;20462;-45
2023/03/23 08:29:45;;;;;;;2.90;2.30;;;17.60;99.90;;;;;;5091583;28;20343;-46
2023/03/23 08:32:11;;;;;;;3.33;2.73;;;17.70;99.90;;;;;;5093301;28;20179;-44
2023/03/23 08:34:37;;;;;;;2.67;2.00;;;17.80;99.90;;;;;;5091260;28;20495;-45
2023/03/23 08:37:03;;;;;;;3.23;2.90;;;17.90;99.90;;;;;;5093444;28;20418;-45
2023/03/23 08:39:30;;;;;;;6.43;2.80;;;17.80;99.90;;;;;;5093733;28;20182;-45
2023/03/23 08:41:56;;;;;;;3.20;2.87;;;17.80;99.90;;;;;;5093508;28;20196;-45
2023/03/23 08:44:21;;;;;;;4.50;2.40;;;17.80;99.90;;;;;;5096376;28;20421;-44
2023/03/23 08:46:47;;;;;;;3.00;2.20;;;17.70;99.90;;;;;;5095280;28;20173;-46
2023/03/23 08:49:13;;;;;;;3.00;2.33;;;17.80;99.90;;;;;;5094607;28;20173;-45
2023/03/23 08:51:39;;;;;;;2.40;2.17;;;17.80;99.90;;;;;;5095079;28;20303;-44
2023/03/23 08:54:07;;;;;;;4.90;2.73;;;17.80;99.90;;;;;;5095219;28;20207;-44
2023/03/23 08:56:33;;;;;;;4.40;2.73;;;17.80;99.90;;;;;;5095602;28;20422;-45
2023/03/23 08:58:58;;;;;;;3.33;2.20;;;17.80;99.90;;;;;;5096620;28;20423;-47
2023/03/23 09:01:24;;;;;;;3.07;2.30;;;17.90;99.90;;;;;;5096545;28;20216;-45
2023/03/23 09:03:50;;;;;;;2.90;2.40;;;17.90;99.90;;;;;;5097186;28;20255;-48
2023/03/23 09:06:16;;;;;;;2.20;2.00;;;18.00;99.90;;;;;;5097528;28;20582;-45
2023/03/23 09:08:41;;;;;;;3.13;2.30;;;18.00;99.90;;;;;;5097676;28;20418;-47
2023/03/23 09:11:08;;;;;;;2.50;1.97;;;18.10;99.90;;;;;;5097729;28;20279;-52
2023/03/23 09:13:38;;;;;;;2.43;1.93;;;18.20;99.90;;;;;;5093953;28;20407;-46
2023/03/23 09:16:05;;;;;;;2.27;2.00;;;18.20;99.90;;;;;;5092297;28;20444;-44
2023/03/23 09:18:34;;;;;;;2.43;2.07;;;18.30;99.90;;;;;;5094459;28;20457;-45
2023/03/23 09:21:01;;;;;;;3.40;2.33;;;18.50;99.90;;;;;;5095070;28;20488;-45
2023/03/23 09:23:27;;;;;;;3.00;2.33;;;18.50;99.90;;;;;;5096448;28;20409;-46
2023/03/23 09:25:53;;;;;;;2.43;2.00;;;18.60;99.90;;;;;;5093433;28;20806;-47
2023/03/23 09:28:19;;;;;;;2.70;2.20;;;18.80;99.90;;;;;;5094196;28;20184;-44
2023/03/23 09:30:47;;;;;;;3.20;2.07;;;18.90;99.90;;;;;;5094527;28;20758;-45
2023/03/23 09:33:13;;;;;;;4.17;2.30;;;19.00;99.90;;;;;;5095647;28;20471;-44
2023/03/23 09:35:41;;;;;;;2.40;2.20;;;18.90;99.90;;;;;;5094099;28;20437;-44
2023/03/23 09:38:09;;;;;;;3.33;2.20;;;18.90;99.90;;;;;;5091619;28;20445;-44
2023/03/23 09:40:43;;;;;;;6.80;1.90;;;18.70;99.90;;;;;;5092168;28;20469;-46
2023/03/23 09:43:17;;;;;;;2.93;2.73;;;18.60;99.90;;;;;;5093510;28;20437;-48
2023/03/23 09:46:04;;;;;;;2.30;1.90;;;18.50;99.90;;;;;;5091390;28;20414;-46
2023/03/23 09:48:46;;;;;;;2.57;1.87;;;18.50;99.90;;;;;;5092001;28;20544;-45
2023/03/23 09:51:42;;;;;;;3.00;1.93;;;18.50;99.90;;;;;;5091166;28;20733;-44
2023/03/23 09:54:18;;;;;;;1.97;1.77;;;18.60;99.90;;;;;;5092685;28;20854;-44
2023/03/23 09:56:44;;;;;;;4.97;2.63;;;18.60;99.90;;;;;;5092476;28;20559;-45
2023/03/23 09:59:20;;;;;;;3.63;2.70;;;18.60;99.90;;;;;;5090168;28;20414;-43
2023/03/23 10:01:50;;;;;;;3.20;2.60;;;18.60;99.90;;;;;;5092255;28;20507;-46
2023/03/23 10:04:37;;;;;;;3.70;2.40;;;18.80;99.90;;;;;;5092124;28;20471;-44
2023/03/23 10:07:27;;;;;;;2.70;2.50;;;19.00;99.90;;;;;;5093958;28;20422;-45
2023/03/23 10:09:56;;;;;;;3.27;2.20;;;19.60;99.90;;;;;;5086365;28;20755;-47
2023/03/23 10:12:27;;;;;;;3.90;2.67;;;20.10;99.90;;;;;;5094742;28;20689;-47
2023/03/23 10:15:16;;;;;;;4.00;1.90;;;20.60;99.90;;;;;;5091735;28;20718;-45
2023/03/23 10:17:50;;;;;;;2.63;2.20;;;21.00;99.90;;;;;;5091759;28;20421;-46
2023/03/23 10:20:31;;;;;;;3.80;2.23;;;21.10;99.90;;;;;;5093868;28;20425;-47
2023/03/23 10:23:19;;;;;;;2.37;2.13;;;21.20;99.90;;;;;;5092541;28;20414;-47
2023/03/23 10:25:58;;;;;;;3.63;2.17;;;21.40;99.90;;;;;;5091629;28;20843;-46
2023/03/23 10:28:39;;;;;;;3.70;2.30;;;21.30;99.90;;;;;;5074782;28;20462;-45
2023/03/23 10:31:08;;;;;;;3.40;2.43;;;21.40;99.90;;;;;;5072576;28;20568;-45
2023/03/23 10:33:42;;;;;;;2.10;1.80;;;21.50;99.90;;;;;;5073806;28;20408;-46
2023/03/23 10:36:29;;;;;;;2.60;1.90;;;21.50;99.90;;;;;;5071403;28;21045;-45
2023/03/23 10:39:07;;;;;;;3.47;1.93;;;21.60;99.90;;;;;;5073676;28;20517;-45
2023/03/23 10:41:33;;;;;;;3.90;2.60;;;21.80;99.90;;;;;;5072710;28;20470;-46
2023/03/23 10:44:15;;;;;;;2.30;2.10;;;22.10;99.90;;;;;;5070843;28;20415;-47
2023/03/23 10:46:53;;;;;;;2.53;2.30;;;22.30;99.90;;;;;;5070961;28;20250;-46
2023/03/23 10:49:47;;;;;;;2.30;1.90;;;22.60;99.90;;;;;;5071663;28;20681;-46
2023/03/23 10:52:20;;;;;;;5.77;2.13;;;23.10;99.90;;;;;;5073262;28;20424;-45
2023/03/23 10:54:52;;;;;;;2.30;2.00;;;23.70;99.90;;;;;;5056149;28;20724;-46
2023/03/23 10:57:31;;;;;;;3.07;2.43;;;24.00;99.90;;;;;;5072608;28;20437;-45
2023/03/23 11:00:18;;;;;;;2.73;2.27;;;24.00;99.90;;;;;;5073270;28;20423;-49
2023/03/23 11:02:58;;;;;;;4.07;2.40;;;24.00;99.90;;;;;;5072056;28;20509;-45
2023/03/23 11:05:33;;;;;;;3.63;2.40;;;23.80;99.90;;;;;;5072285;28;20434;-44
2023/03/23 11:08:01;;;;;;;2.30;2.03;;;23.70;99.90;;;;;;5074060;28;20470;-46
2023/03/23 11:10:38;;;;;;;2.93;2.63;;;23.40;99.90;;;;;;5070125;28;20450;-46
2023/03/23 11:13:07;;;;;;;2.53;2.27;;;23.10;99.90;;;;;;5072776;28;20411;-46
2023/03/23 11:15:39;;;;;;;3.03;2.30;;;22.80;99.90;;;;;;5072697;28;20530;-45
2023/03/23 11:18:21;;;;;;;2.70;2.20;;;22.80;99.90;;;;;;5073055;28;20410;-47
2023/03/23 11:20:56;;;;;;;4.10;2.57;;;22.70;99.90;;;;;;5071415;28;20880;-46
2023/03/23 11:23:25;;;;;;;2.43;2.07;;;22.60;99.90;;;;;;5052287;28;20418;-47
2023/03/23 11:26:00;;;;;;;2.50;2.30;;;22.50;99.90;;;;;;5052049;28;20466;-47
2023/03/23 11:28:30;;;;;;;2.60;1.87;;;22.60;99.90;;;;;;5067626;28;20496;-46
2023/03/23 11:30:56;;;;;;;3.17;2.43;;;22.60;99.90;;;;;;5070344;28;20428;-45
2023/03/23 11:33:24;;;;;;;6.10;2.23;;;22.60;99.90;;;;;;5053298;28;20459;-46
2023/03/23 11:35:52;;;;;;;3.30;2.33;;;22.80;99.90;;;;;;5071024;28;20224;-46
2023/03/23 11:38:20;;;;;;;3.40;2.43;;;23.00;99.90;;;;;;5071143;28;20431;-44
2023/03/23 11:40:51;;;;;;;3.70;1.80;;;23.20;99.90;;;;;;5051405;28;20794;-46
2023/03/23 11:43:24;;;;;;;7.07;2.33;;;23.40;99.90;;;;;;5051556;28;20809;-44
2023/03/23 11:46:13;;;;;;;3.30;2.50;;;23.50;99.90;;;;;;5068038;28;20423;-46
2023/03/23 11:49:01;;;;;;;2.70;2.00;;;23.60;99.90;;;;;;5062483;28;20444;-44
2023/03/23 11:51:38;;;;;;;2.90;2.40;;;23.80;99.90;;;;;;5071523;28;20446;-45
2023/03/23 11:54:26;;;;;;;3.20;2.50;;;23.70;99.90;;;;;;5068387;28;20415;-46
2023/03/23 11:56:54;;;;;;;4.87;2.10;;;23.70;99.90;;;;;;5068171;28;20814;-44
2023/03/23 11:59:33;;;;;;;2.93;2.30;;;23.50;99.90;;;;;;5053525;28;20468;-45
2023/03/23 12:02:20;;;;;;;3.77;1.93;;;23.30;99.90;;;;;;5067844;28;20474;-45
2023/03/23 12:05:20;;;;;;;5.90;2.93;;;23.30;99.90;;;;;;5070315;28;20430;-44
2023/03/23 12:08:16;;;;;;;4.57;2.20;;;23.20;99.90;;;;;;5071329;28;20884;-45
2023/03/23 12:10:48;;;;;;;4.50;2.33;;;23.20;99.90;;;;;;5071612;28;20455;-44
2023/03/23 12:13:40;;;;;;;2.10;1.87;;;23.10;99.90;;;;;;5074897;28;20494;-43
2023/03/23 12:16:17;;;;;;;3.07;2.27;;;23.10;99.90;;;;;;5070408;28;20763;-43
2023/03/23 12:19:08;;;;;;;2.13;1.80;;;22.90;99.90;;;;;;5073654;28;20407;-42
2023/03/23 12:21:45;;;;;;;1.93;1.73;;;22.90;99.90;;;;;;5072856;28;20540;-44
2023/03/23 12:24:43;;;;;;;3.17;2.17;;;22.80;99.90;;;;;;5070997;28;21066;-45
2023/03/23 12:27:46;;;;;;;2.20;1.67;;;22.70;99.90;;;;;;5055998;28;20502;-44
2023/03/23 12:31:03;;;;;;;2.73;2.13;;;22.60;99.90;;;;;;5074338;28;20445;-44
2023/03/23 12:33:46;;;;;;;3.53;2.00;;;22.50;99.90;;;;;;4994119;28;20534;-44
2023/03/23 12:36:46;;;;;;;2.33;2.13;;;22.50;99.90;;;;;;4997159;28;20893;-44
2023/03/23 12:39:33;;;;;;;3.77;2.23;;;22.60;99.90;;;;;;5046595;28;20425;-43
2023/03/23 12:42:40;;;;;;;4.57;2.20;;;23.00;99.90;;;;;;5073849;28;20463;-44
2023/03/23 12:45:45;;;;;;;2.93;1.80;;;23.50;99.90;;;;;;5061869;28;20461;-46
2023/03/23 12:48:18;;;;;;;2.50;2.10;;;23.90;99.90;;;;;;5051365;28;20481;-44
2023/03/23 12:50:56;;;;;;;2.77;2.00;;;24.10;99.90;;;;;;5075202;28;20439;-44
2023/03/23 12:53:29;;;;;;;2.37;1.97;;;24.20;99.90;;;;;;5072259;28;20415;-44
2023/03/23 12:56:22;;;;;;;2.83;2.17;;;24.30;99.90;;;;;;5073076;28;20685;-45
2023/03/23 12:58:53;;;;;;;2.60;2.30;;;24.50;99.90;;;;;;5072977;28;20868;-45
2023/03/23 13:01:26;;;;;;;4.23;2.57;;;24.60;99.90;;;;;;5071552;28;20567;-44
2023/03/23 13:04:05;;;;;;;3.30;2.10;;;24.80;99.90;;;;;;5069441;28;20386;-43
2023/03/23 13:06:39;;;;;;;3.07;2.77;;;24.90;99.90;;;;;;5073803;28;20423;-46
2023/03/23 13:09:43;;;;;;;2.63;2.27;;;24.90;99.90;;;;;;5074545;28;20425;-47
2023/03/23 13:12:10;;;;;;;2.63;2.00;;;24.90;99.90;;;;;;5075507;28;20438;-43